Time,TemperatureF,DewpointF,PressureIn,WindDirection,WindDirectionDegrees,WindSpeedMPH,WindSpeedGustMPH,Humidity,HourlyPrecipIn,Conditions,Clouds,dailyrainin,SoftwareType,DateUTC
2013-04-12 00:01:00,43.0,37.0,30.09,East,84,0.0,0.0,80,0.00,,,0.00,,2013-04-12 07:01:00,
2013-04-12 00:11:00,43.0,37.0,30.09,East,84,0.0,0.0,80,0.00,,,0.00,,2013-04-12 07:11:00,
2013-04-12 00:22:00,43.0,37.0,30.09,East,84,0.0,0.0,80,0.00,,,0.00,,2013-04-12 07:22:00,
2013-04-12 00:32:00,42.0,37.0,30.09,East,84,0.0,0.0,81,0.00,,,0.00,,2013-04-12 07:32:00,
2013-04-12 00:42:00,42.0,37.0,30.09,East,84,0.0,0.0,81,0.00,,,0.00,,2013-04-12 07:42:00,
2013-04-12 00:52:00,42.0,37.0,30.08,East,84,0.0,0.0,81,0.00,,,0.00,,2013-04-12 07:52:00,
2013-04-12 01:02:00,42.0,37.0,30.08,East,84,0.0,0.0,81,0.00,,,0.00,,2013-04-12 08:02:00,
2013-04-12 01:11:00,42.0,37.0,30.08,East,84,0.0,0.0,81,0.00,,,0.00,,2013-04-12 08:11:00,
2013-04-12 01:22:00,41.0,36.0,30.07,East,84,0.0,0.0,83,0.00,,,0.00,,2013-04-12 08:22:00,
2013-04-12 01:32:00,40.0,36.0,30.07,East,84,0.0,0.0,84,0.00,,,0.00,,2013-04-12 08:32:00,
2013-04-12 01:42:00,40.0,36.0,30.07,East,84,0.0,0.0,84,0.00,,,0.00,,2013-04-12 08:42:00,
2013-04-12 01:52:00,40.0,36.0,30.06,East,84,0.0,0.0,85,0.00,,,0.00,,2013-04-12 08:52:00,
2013-04-12 02:02:00,40.0,36.0,30.06,East,84,0.0,0.0,85,0.00,,,0.00,,2013-04-12 09:02:00,
2013-04-12 02:10:00,39.0,35.0,30.06,East,84,0.0,0.0,86,0.00,,,0.00,,2013-04-12 09:10:00,
2013-04-12 02:11:00,40.0,36.0,30.06,East,84,0.0,0.0,85,0.00,,,0.00,,2013-04-12 09:11:00,
2013-04-12 02:22:00,39.0,35.0,30.06,East,84,0.0,0.0,86,0.00,,,0.00,,2013-04-12 09:22:00,
2013-04-12 02:32:00,39.0,35.0,30.06,East,84,0.0,0.0,86,0.00,,,0.00,,2013-04-12 09:32:00,
2013-04-12 02:43:00,39.0,35.0,30.06,East,84,0.0,0.0,86,0.00,,,0.00,,2013-04-12 09:43:00,
2013-04-12 02:53:00,39.0,35.0,30.06,East,84,0.0,0.0,86,0.00,,,0.00,,2013-04-12 09:53:00,
2013-04-12 03:02:00,39.0,35.0,30.06,East,84,0.0,0.0,86,0.00,,,0.00,,2013-04-12 10:02:00,
2013-04-12 03:23:00,38.0,34.0,30.04,East,84,0.0,0.0,87,0.00,,,0.00,,2013-04-12 10:23:00,
2013-04-12 03:34:00,38.0,34.0,30.04,East,84,0.0,0.0,87,0.00,,,0.00,,2013-04-12 10:34:00,
2013-04-12 03:42:00,38.0,34.0,30.04,East,84,0.0,0.0,87,0.00,,,0.00,,2013-04-12 10:42:00,
2013-04-12 03:52:00,38.0,34.0,30.04,East,84,0.0,0.0,87,0.00,,,0.00,,2013-04-12 10:52:00,
2013-04-12 04:12:00,37.0,34.0,30.04,East,84,0.0,0.0,87,0.00,,,0.00,,2013-04-12 11:12:00,
2013-04-12 04:20:00,37.0,34.0,30.03,East,84,0.0,0.0,88,0.00,,,0.00,,2013-04-12 11:20:00,
2013-04-12 04:22:00,37.0,34.0,30.03,East,84,0.0,0.0,88,0.00,,,0.00,,2013-04-12 11:22:00,
2013-04-12 04:32:00,37.0,34.0,30.03,East,84,0.0,0.0,88,0.00,,,0.00,,2013-04-12 11:32:00,
2013-04-12 04:42:00,37.0,34.0,30.03,East,84,0.0,0.0,88,0.00,,,0.00,,2013-04-12 11:42:00,
2013-04-12 04:52:00,37.0,34.0,30.03,East,84,0.0,0.0,88,0.00,,,0.00,,2013-04-12 11:52:00,
2013-04-12 05:02:00,37.0,34.0,30.03,East,84,0.0,0.0,88,0.00,,,0.00,,2013-04-12 12:02:00,
2013-04-12 05:10:00,36.0,33.0,30.02,East,84,0.0,0.0,88,0.00,,,0.00,,2013-04-12 12:10:00,
2013-04-12 05:12:00,37.0,34.0,30.03,East,84,0.0,0.0,88,0.00,,,0.00,,2013-04-12 12:12:00,
2013-04-12 05:33:00,36.0,33.0,30.02,East,84,0.0,0.0,88,0.00,,,0.00,,2013-04-12 12:33:00,
2013-04-12 05:42:00,36.0,33.0,30.02,East,84,0.0,0.0,88,0.00,,,0.00,,2013-04-12 12:42:00,
2013-04-12 05:53:00,36.0,33.0,30.02,East,84,0.0,0.0,88,0.00,,,0.00,,2013-04-12 12:53:00,
2013-04-12 06:02:00,36.0,33.0,30.02,East,84,0.0,0.0,88,0.00,,,0.00,,2013-04-12 13:02:00,
2013-04-12 06:22:00,36.0,33.0,30.01,East,84,0.0,0.0,88,0.00,,,0.00,,2013-04-12 13:22:00,
2013-04-12 06:32:00,36.0,33.0,30.01,East,84,0.0,0.0,88,0.00,,,0.00,,2013-04-12 13:32:00,
2013-04-12 06:43:00,36.0,33.0,30.01,East,84,0.0,0.0,88,0.00,,,0.00,,2013-04-12 13:43:00,
2013-04-12 06:53:00,36.0,33.0,30.01,East,84,0.0,0.0,88,0.00,,,0.00,,2013-04-12 13:53:00,
2013-04-12 07:02:00,36.0,33.0,30.02,East,84,0.0,0.0,88,0.00,,,0.00,,2013-04-12 14:02:00,
2013-04-12 07:12:00,36.0,33.0,30.02,East,84,0.0,0.0,88,0.00,,,0.00,,2013-04-12 14:12:00,
2013-04-12 07:22:00,36.0,33.0,30.01,East,84,0.0,0.0,89,0.00,,,0.00,,2013-04-12 14:22:00,
2013-04-12 07:32:00,36.0,33.0,30.01,East,84,0.0,0.0,89,0.00,,,0.00,,2013-04-12 14:32:00,
2013-04-12 07:42:00,36.0,33.0,30.01,East,84,0.0,0.0,89,0.00,,,0.00,,2013-04-12 14:42:00,
2013-04-12 07:53:00,37.0,34.0,30.01,East,84,0.0,0.0,90,0.00,,,0.00,,2013-04-12 14:53:00,
2013-04-12 08:02:00,37.0,34.0,30.01,East,84,0.0,0.0,89,0.00,,,0.00,,2013-04-12 15:02:00,
2013-04-12 08:10:00,39.0,35.0,29.99,East,84,0.0,0.0,86,0.00,,,0.00,,2013-04-12 15:10:00,
2013-04-12 08:12:00,37.0,34.0,30.01,East,84,0.0,0.0,89,0.00,,,0.00,,2013-04-12 15:12:00,
2013-04-12 08:22:00,38.0,34.0,29.99,East,84,0.0,0.0,87,0.00,,,0.00,,2013-04-12 15:22:00,
2013-04-12 08:33:00,39.0,35.0,29.99,East,84,0.0,0.0,86,0.00,,,0.00,,2013-04-12 15:33:00,
2013-04-12 08:43:00,39.0,35.0,29.99,East,84,0.0,0.0,86,0.00,,,0.00,,2013-04-12 15:43:00,
2013-04-12 08:53:00,39.0,35.0,29.99,East,84,0.0,0.0,86,0.00,,,0.00,,2013-04-12 15:53:00,
2013-04-12 09:03:00,39.0,35.0,29.99,East,84,0.0,0.0,86,0.00,,,0.00,,2013-04-12 16:03:00,
2013-04-12 09:23:00,43.0,37.0,29.98,WSW,238,0.0,0.0,79,0.00,,,0.00,,2013-04-12 16:23:00,
2013-04-12 09:33:00,43.0,37.0,29.98,WSW,238,0.0,0.0,79,0.00,,,0.00,,2013-04-12 16:33:00,
2013-04-12 09:43:00,43.0,37.0,29.98,WSW,238,0.0,0.0,79,0.00,,,0.00,,2013-04-12 16:43:00,
2013-04-12 09:53:00,44.0,37.0,29.98,SSW,201,0.0,0.0,77,0.00,,,0.00,,2013-04-12 16:53:00,
2013-04-12 10:02:00,44.0,37.0,29.98,SW,233,0.0,0.0,77,0.00,,,0.00,,2013-04-12 17:02:00,
2013-04-12 10:12:00,44.0,37.0,29.98,SW,233,0.0,0.0,77,0.00,,,0.00,,2013-04-12 17:12:00,
2013-04-12 10:22:00,45.0,38.0,29.96,SW,218,0.0,0.0,75,0.00,,,0.00,,2013-04-12 17:22:00,
2013-04-12 10:32:00,46.0,38.0,29.96,SSW,196,0.0,0.0,74,0.00,,,0.00,,2013-04-12 17:32:00,
2013-04-12 10:43:00,46.0,38.0,29.96,SSW,196,0.0,0.0,74,0.00,,,0.00,,2013-04-12 17:43:00,
2013-04-12 11:02:00,46.0,39.0,29.95,SSW,207,0.0,0.0,75,0.00,,,0.00,,2013-04-12 18:02:00,
2013-04-12 11:13:00,46.0,38.0,29.95,SW,236,0.0,0.0,73,0.00,,,0.00,,2013-04-12 18:13:00,
2013-04-12 12:32:00,49.0,40.0,29.93,WSW,248,0.0,0.0,71,0.00,,,0.00,,2013-04-12 19:32:00,
2013-04-12 12:42:00,49.0,40.0,29.93,WSW,248,0.0,0.0,71,0.00,,,0.00,,2013-04-12 19:42:00,
2013-04-12 12:53:00,49.0,40.0,29.92,WSW,247,0.0,0.0,72,0.00,,,0.00,,2013-04-12 19:53:00,
2013-04-12 13:01:00,49.0,40.0,29.92,SW,227,0.0,0.0,72,0.00,,,0.00,,2013-04-12 20:01:00,
2013-04-12 13:12:00,49.0,40.0,29.92,SW,227,0.0,0.0,72,0.00,,,0.00,,2013-04-12 20:12:00,
2013-04-12 13:22:00,50.0,40.0,29.91,WSW,249,0.0,0.0,69,0.00,,,0.00,,2013-04-12 20:22:00,
2013-04-12 13:32:00,50.0,40.0,29.91,WSW,249,0.0,0.0,69,0.00,,,0.00,,2013-04-12 20:32:00,
2013-04-12 13:42:00,50.0,40.0,29.91,WSW,249,0.0,0.0,69,0.00,,,0.00,,2013-04-12 20:42:00,
2013-04-12 13:52:00,50.0,40.0,29.91,WSW,249,0.0,0.0,69,0.00,,,0.00,,2013-04-12 20:52:00,
2013-04-12 14:01:00,50.0,40.0,29.91,WSW,252,0.0,0.0,68,0.00,,,0.00,,2013-04-12 21:01:00,
2013-04-12 14:11:00,50.0,40.0,29.91,WSW,252,0.0,0.0,68,0.00,,,0.00,,2013-04-12 21:11:00,
2013-04-12 14:22:00,51.0,40.0,29.89,SW,233,0.0,0.0,67,0.00,,,0.00,,2013-04-12 21:22:00,
2013-04-12 14:32:00,51.0,40.0,29.89,SW,233,0.0,0.0,67,0.00,,,0.00,,2013-04-12 21:32:00,
2013-04-12 14:42:00,51.0,40.0,29.89,SW,233,0.0,0.0,67,0.00,,,0.00,,2013-04-12 21:42:00,
2013-04-12 14:52:00,51.0,40.0,29.89,SW,233,0.0,0.0,67,0.00,,,0.00,,2013-04-12 21:52:00,
2013-04-12 15:02:00,53.0,41.0,29.88,WSW,252,0.0,0.0,64,0.00,,,0.00,,2013-04-12 22:02:00,
2013-04-12 15:12:00,53.0,41.0,29.88,WSW,252,0.0,0.0,64,0.00,,,0.00,,2013-04-12 22:12:00,
2013-04-12 15:22:00,53.0,40.0,29.88,WSW,245,0.0,0.0,62,0.00,,,0.00,,2013-04-12 22:22:00,
2013-04-12 15:32:00,53.0,40.0,29.88,WSW,245,0.0,0.0,62,0.00,,,0.00,,2013-04-12 22:32:00,
2013-04-12 15:42:00,53.0,40.0,29.88,WSW,245,0.0,0.0,62,0.00,,,0.00,,2013-04-12 22:42:00,
2013-04-12 15:52:00,53.0,40.0,29.88,WSW,245,0.0,0.0,62,0.00,,,0.00,,2013-04-12 22:52:00,
2013-04-12 16:03:00,53.0,42.0,29.87,West,261,0.0,0.0,67,0.00,,,0.00,,2013-04-12 23:03:00,
2013-04-12 16:12:00,53.0,42.0,29.87,West,261,0.0,0.0,67,0.00,,,0.00,,2013-04-12 23:12:00,
2013-04-12 16:22:00,53.0,42.0,29.87,West,261,0.0,0.0,67,0.00,,,0.00,,2013-04-12 23:22:00,
2013-04-12 16:32:00,53.0,42.0,29.85,SW,233,0.0,0.0,66,0.00,,,0.00,,2013-04-12 23:32:00,
2013-04-12 16:42:00,53.0,42.0,29.85,SW,233,0.0,0.0,66,0.00,,,0.00,,2013-04-12 23:42:00,
2013-04-12 16:52:00,54.0,42.0,29.85,WSW,247,0.0,0.0,64,0.00,,,0.00,,2013-04-12 23:52:00,
2013-04-12 17:01:00,54.0,42.0,29.85,WSW,247,0.0,0.0,64,0.00,,,0.00,,2013-04-13 00:01:00,
2013-04-12 17:12:00,54.0,42.0,29.85,WSW,247,0.0,0.0,64,0.00,,,0.00,,2013-04-13 00:12:00,
2013-04-12 17:22:00,54.0,41.0,29.83,SSW,196,0.0,0.0,62,0.00,,,0.00,,2013-04-13 00:22:00,
2013-04-12 17:32:00,54.0,42.0,29.83,SW,222,0.0,0.0,63,0.00,,,0.00,,2013-04-13 00:32:00,
2013-04-12 17:42:00,54.0,42.0,29.83,SW,222,0.0,0.0,63,0.00,,,0.00,,2013-04-13 00:42:00,
2013-04-12 17:52:00,54.0,43.0,29.82,SW,225,0.0,0.0,65,0.00,,,0.00,,2013-04-13 00:52:00,
2013-04-12 18:01:00,54.0,43.0,29.82,SW,225,0.0,0.0,65,0.00,,,0.00,,2013-04-13 01:01:00,
2013-04-12 18:12:00,54.0,43.0,29.82,SW,225,0.0,0.0,65,0.00,,,0.00,,2013-04-13 01:12:00,
2013-04-12 18:22:00,54.0,43.0,29.81,WSW,254,0.0,0.0,66,0.00,,,0.00,,2013-04-13 01:22:00,
2013-04-12 18:31:00,54.0,43.0,29.81,West,269,0.0,0.0,66,0.00,,,0.00,,2013-04-13 01:31:00,
2013-04-12 18:43:00,54.0,43.0,29.81,West,269,0.0,0.0,66,0.00,,,0.00,,2013-04-13 01:43:00,
2013-04-12 18:52:00,53.0,43.0,29.83,NNW,335,0.0,0.0,68,0.00,,,0.00,,2013-04-13 01:52:00,
2013-04-12 19:01:00,52.0,44.0,29.83,WNW,282,0.0,0.0,74,0.00,,,0.00,,2013-04-13 02:01:00,
2013-04-12 19:11:00,52.0,44.0,29.83,WNW,282,0.0,0.0,74,0.00,,,0.00,,2013-04-13 02:11:00,
2013-04-12 19:22:00,52.0,44.0,29.83,WSW,252,0.0,0.0,74,0.00,,,0.00,,2013-04-13 02:22:00,
2013-04-12 19:32:00,52.0,44.0,29.83,WSW,252,0.0,0.0,74,0.00,,,0.00,,2013-04-13 02:32:00,
2013-04-12 19:42:00,52.0,44.0,29.83,WSW,252,0.0,0.0,74,0.00,,,0.00,,2013-04-13 02:42:00,
2013-04-12 19:53:00,51.0,42.0,29.82,West,271,0.0,0.0,70,0.00,,,0.00,,2013-04-13 02:53:00,
2013-04-12 20:01:00,51.0,42.0,29.82,West,271,0.0,0.0,70,0.00,,,0.00,,2013-04-13 03:01:00,
2013-04-12 20:12:00,51.0,42.0,29.82,West,271,0.0,0.0,70,0.00,,,0.00,,2013-04-13 03:12:00,
2013-04-12 20:22:00,49.0,42.0,29.83,SSW,204,0.0,0.0,78,0.00,,,0.00,,2013-04-13 03:22:00,
2013-04-12 20:32:00,49.0,42.0,29.83,SSW,204,0.0,0.0,78,0.00,,,0.00,,2013-04-13 03:32:00,
2013-04-12 20:43:00,49.0,42.0,29.83,SSW,204,0.0,0.0,78,0.00,,,0.00,,2013-04-13 03:43:00,
2013-04-12 20:53:00,49.0,43.0,29.83,SW,224,0.0,0.0,80,0.00,,,0.00,,2013-04-13 03:53:00,
2013-04-12 21:02:00,48.0,43.0,29.84,SSW,210,0.0,0.0,83,0.01,,,0.01,,2013-04-13 04:02:00,
2013-04-12 21:12:00,48.0,43.0,29.84,SSW,210,0.0,0.0,83,0.01,,,0.01,,2013-04-13 04:12:00,
2013-04-12 21:22:00,47.0,43.0,29.85,SSW,200,0.0,0.0,87,0.03,,,0.03,,2013-04-13 04:22:00,
2013-04-12 21:33:00,47.0,43.0,29.85,SSW,200,0.0,0.0,87,0.03,,,0.03,,2013-04-13 04:33:00,
2013-04-12 21:42:00,47.0,43.0,29.85,SSW,200,0.0,0.0,87,0.03,,,0.03,,2013-04-13 04:42:00,
2013-04-12 21:53:00,46.0,43.0,29.85,SSW,194,0.0,0.0,89,0.06,,,0.06,,2013-04-13 04:53:00,
2013-04-12 22:02:00,46.0,43.0,29.85,SSW,208,0.0,0.0,89,0.06,,,0.07,,2013-04-13 05:02:00,
2013-04-12 22:12:00,46.0,43.0,29.85,SSW,208,0.0,0.0,89,0.06,,,0.07,,2013-04-13 05:12:00,
2013-04-12 22:22:00,46.0,43.0,29.85,South,186,0.0,0.0,90,0.05,,,0.08,,2013-04-13 05:22:00,
2013-04-12 22:31:00,46.0,43.0,29.85,SSW,205,0.0,0.0,90,0.05,,,0.09,,2013-04-13 05:31:00,
2013-04-12 22:42:00,46.0,43.0,29.85,SSW,205,0.0,0.0,90,0.05,,,0.09,,2013-04-13 05:42:00,
2013-04-12 22:52:00,46.0,43.0,29.84,SSW,200,0.0,0.0,90,0.04,,,0.09,,2013-04-13 05:52:00,
2013-04-12 23:01:00,46.0,43.0,29.84,SSW,200,0.0,0.0,90,0.04,,,0.09,,2013-04-13 06:01:00,
2013-04-12 23:12:00,46.0,43.0,29.84,SSW,200,0.0,0.0,90,0.04,,,0.09,,2013-04-13 06:12:00,
2013-04-12 23:22:00,46.0,44.0,29.85,SW,223,0.0,0.0,91,0.02,,,0.10,,2013-04-13 06:22:00,
2013-04-12 23:35:00,46.0,44.0,29.85,SSW,208,0.0,0.0,91,0.02,,,0.11,,2013-04-13 06:35:00,
2013-04-12 23:49:00,46.0,44.0,29.85,SSW,208,0.0,0.0,91,0.02,,,0.11,,2013-04-13 06:49:00,
2013-04-12 23:54:00,46.0,44.0,29.85,SSW,211,0.0,0.0,91,0.01,,,0.11,,2013-04-13 06:54:00,